createdAt,value
2018-01-19T00:00:16.717Z,56.12
2018-01-19T00:01:16.711Z,56.22
2018-01-19T00:02:16.702Z,56.22
2018-01-19T00:03:16.697Z,56.12
2018-01-19T00:04:16.695Z,56.15
2018-01-19T00:05:16.683Z,56.12
2018-01-19T00:06:16.677Z,55.83
2018-01-19T00:07:16.669Z,56.05
2018-01-19T00:08:16.663Z,56.03
2018-01-19T00:09:16.655Z,56.32
2018-01-19T00:10:16.648Z,56.44
2018-01-19T00:11:16.644Z,55.96
2018-01-19T00:12:16.636Z,56.22
2018-01-19T00:13:16.628Z,56.44
2018-01-19T00:14:16.623Z,56.32
2018-01-19T00:15:16.617Z,56.12
2018-01-19T00:16:16.610Z,56.41
2018-01-19T00:17:16.605Z,56.41
2018-01-19T00:18:16.596Z,56.41
2018-01-19T00:19:16.590Z,56.51
2018-01-19T00:20:16.584Z,56.51
2018-01-19T00:21:16.575Z,56.22
2018-01-19T00:22:16.569Z,56.51
2018-01-19T00:23:16.563Z,56.41
2018-01-19T00:24:16.557Z,56.32
2018-01-19T00:25:16.548Z,56.99
2018-01-19T00:26:16.542Z,56.70
2018-01-19T00:27:16.537Z,56.70
2018-01-19T00:28:16.532Z,56.60
2018-01-19T00:29:16.523Z,56.80
2018-01-19T00:30:16.516Z,56.80
2018-01-19T00:31:16.510Z,56.80
2018-01-19T00:32:16.503Z,56.80
2018-01-19T00:33:16.498Z,56.60
2018-01-19T00:34:16.491Z,56.70
2018-01-19T00:35:16.482Z,56.70
2018-01-19T00:36:16.478Z,56.70
2018-01-19T00:37:16.470Z,57.18
2018-01-19T00:38:16.463Z,57.09
2018-01-19T00:39:16.457Z,57.18
2018-01-19T00:40:16.449Z,56.90
2018-01-19T00:41:16.443Z,56.90
2018-01-19T00:42:16.438Z,56.90
2018-01-19T00:43:16.433Z,57.09
2018-01-19T00:44:16.425Z,56.90
2018-01-19T00:45:16.417Z,57.09
2018-01-19T00:46:16.411Z,56.90
2018-01-19T00:47:16.404Z,56.70
2018-01-19T00:48:16.398Z,56.90
2018-01-19T00:49:16.392Z,56.80
2018-01-19T00:50:16.385Z,56.63
2018-01-19T00:51:16.378Z,56.90
2018-01-19T00:52:16.372Z,56.90
2018-01-19T00:53:16.364Z,56.60
2018-01-19T00:54:16.359Z,56.73
2018-01-19T00:55:16.352Z,56.70
2018-01-19T00:56:16.346Z,56.80
2018-01-19T00:57:16.338Z,56.90
2018-01-19T00:58:16.332Z,56.80
2018-01-19T00:59:16.325Z,56.51
2018-01-19T01:00:16.320Z,56.70
2018-01-19T01:01:16.312Z,56.70
2018-01-19T01:02:16.310Z,56.90
2018-01-19T01:03:16.299Z,56.99
2018-01-19T01:04:16.293Z,56.73
2018-01-19T01:05:16.285Z,57.28
2018-01-19T01:06:16.280Z,57.28
2018-01-19T01:07:16.274Z,57.18
2018-01-19T01:08:16.266Z,56.92
2018-01-19T01:09:16.259Z,57.21
2018-01-19T01:10:16.254Z,56.99
2018-01-19T01:11:16.247Z,57.28
2018-01-19T01:12:16.242Z,57.69
2018-01-19T01:13:16.234Z,56.80
2018-01-19T01:14:16.227Z,57.57
2018-01-19T01:15:16.223Z,57.47
2018-01-19T01:16:16.215Z,57.37
2018-01-19T01:17:16.209Z,57.47
2018-01-19T01:18:16.202Z,57.47
2018-01-19T01:19:16.195Z,57.47
2018-01-19T01:20:16.187Z,57.47
2018-01-19T01:21:16.180Z,57.47
2018-01-19T01:22:16.174Z,57.37
2018-01-19T01:23:16.166Z,57.50
2018-01-19T01:24:16.162Z,57.47
2018-01-19T01:25:16.155Z,57.67
2018-01-19T01:26:16.163Z,57.47
2018-01-19T01:27:16.141Z,57.47
2018-01-19T01:28:16.136Z,57.47
2018-01-19T01:29:16.128Z,57.57
2018-01-19T01:30:16.124Z,57.47
2018-01-19T01:31:16.116Z,57.37
2018-01-19T01:32:16.108Z,57.28
2018-01-19T01:33:16.103Z,57.09
2018-01-19T01:34:16.097Z,57.09
2018-01-19T01:35:16.087Z,57.37
2018-01-19T01:36:16.084Z,57.18
2018-01-19T01:37:16.076Z,57.18
2018-01-19T01:38:16.080Z,57.09
2018-01-19T01:39:16.065Z,57.09
2018-01-19T01:40:16.057Z,57.09
2018-01-19T01:41:16.052Z,57.09
2018-01-19T01:42:16.044Z,57.28
2018-01-19T01:43:16.035Z,57.18
2018-01-19T01:44:16.034Z,57.57
2018-01-19T01:45:16.024Z,57.28
2018-01-19T01:46:16.019Z,57.28
2018-01-19T01:47:16.013Z,57.47
2018-01-19T01:48:16.004Z,57.67
2018-01-19T01:49:16.017Z,57.76
2018-01-19T01:50:15.991Z,57.67
2018-01-19T01:51:15.994Z,57.86
2018-01-19T01:52:15.979Z,57.67
2018-01-19T01:53:15.972Z,57.47
2018-01-19T01:54:15.965Z,57.57
2018-01-19T01:55:15.959Z,57.76
2018-01-19T01:56:15.956Z,57.76
2018-01-19T01:57:15.944Z,57.67
2018-01-19T01:58:15.940Z,57.95
2018-01-19T01:59:15.932Z,57.95
2018-01-19T02:00:15.931Z,57.86
2018-01-19T02:01:15.919Z,57.95
2018-01-19T02:02:15.913Z,57.76
2018-01-19T02:03:15.906Z,57.86
2018-01-19T02:04:15.902Z,57.76
2018-01-19T02:05:15.893Z,57.95
2018-01-19T02:06:15.886Z,57.76
2018-01-19T02:07:15.883Z,58.05
2018-01-19T02:08:15.873Z,58.05
2018-01-19T02:09:15.867Z,57.76
2018-01-19T02:10:15.859Z,57.95
2018-01-19T02:11:15.853Z,57.76
2018-01-19T02:12:15.848Z,57.86
2018-01-19T02:13:15.841Z,57.76
2018-01-19T02:14:15.835Z,57.57
2018-01-19T02:15:15.828Z,57.57
2018-01-19T02:16:15.822Z,57.47
2018-01-19T02:17:15.814Z,57.67
2018-01-19T02:18:15.810Z,57.67
2018-01-19T02:19:15.803Z,57.67
2018-01-19T02:20:15.796Z,57.76
2018-01-19T02:21:15.789Z,57.67
2018-01-19T02:22:15.784Z,57.47
2018-01-19T02:23:15.776Z,57.67
2018-01-19T02:24:15.770Z,57.76
2018-01-19T02:25:15.762Z,57.67
2018-01-19T02:26:15.756Z,57.47
2018-01-19T02:27:15.757Z,57.57
2018-01-19T02:28:15.744Z,57.57
2018-01-19T02:29:15.736Z,57.57
2018-01-19T02:30:15.729Z,57.57
2018-01-19T02:31:15.724Z,57.57
2018-01-19T02:32:15.718Z,57.57
2018-01-19T02:33:15.712Z,57.57
2018-01-19T02:34:15.704Z,57.76
2018-01-19T02:35:15.697Z,57.47
2018-01-19T02:36:15.692Z,57.47
2018-01-19T02:37:15.684Z,57.67
2018-01-19T02:38:15.677Z,57.76
2018-01-19T02:39:15.671Z,57.57
2018-01-19T02:40:15.666Z,57.76
2018-01-19T02:41:15.662Z,57.67
2018-01-19T02:42:15.652Z,57.67
2018-01-19T02:43:15.647Z,57.76
2018-01-19T02:44:15.641Z,57.76
2018-01-19T02:45:15.633Z,57.95
2018-01-19T02:46:15.625Z,57.86
2018-01-19T02:47:15.620Z,57.95
2018-01-19T02:48:15.612Z,57.95
2018-01-19T02:49:15.606Z,57.76
2018-01-19T02:50:15.601Z,57.76
2018-01-19T02:51:15.593Z,57.76
2018-01-19T02:52:15.587Z,57.95
2018-01-19T02:53:15.585Z,57.86
2018-01-19T02:54:15.574Z,57.86
2018-01-19T02:55:15.565Z,57.76
2018-01-19T02:56:15.561Z,57.76
2018-01-19T02:57:15.555Z,57.76
2018-01-19T02:58:15.547Z,57.67
2018-01-19T02:59:15.542Z,57.86
2018-01-19T03:00:15.535Z,57.95
2018-01-19T03:01:15.525Z,57.76
2018-01-19T03:02:15.520Z,57.95
2018-01-19T03:03:15.520Z,57.76
2018-01-19T03:04:15.509Z,57.86
2018-01-19T03:05:15.501Z,57.86
2018-01-19T03:06:15.496Z,57.47
2018-01-19T03:07:15.491Z,57.67
2018-01-19T03:08:15.483Z,57.47
2018-01-19T03:09:15.473Z,57.57
2018-01-19T03:10:15.469Z,58.05
2018-01-19T03:11:15.463Z,58.15
2018-01-19T03:12:15.457Z,58.24
2018-01-19T03:13:15.452Z,58.24
2018-01-19T03:14:15.449Z,57.95
2018-01-19T03:15:15.436Z,58.15
2018-01-19T03:16:15.434Z,58.15
2018-01-19T03:17:15.422Z,58.15
2018-01-19T03:18:15.415Z,58.24
2018-01-19T03:19:15.410Z,58.15
2018-01-19T03:20:15.403Z,58.24
2018-01-19T03:21:15.397Z,57.95
2018-01-19T03:22:15.389Z,58.05
2018-01-19T03:23:15.383Z,57.95
2018-01-19T03:24:15.378Z,57.95
2018-01-19T03:25:15.369Z,58.05
2018-01-19T03:26:15.363Z,57.95
2018-01-19T03:27:15.357Z,58.05
2018-01-19T03:28:15.405Z,58.05
2018-01-19T03:29:15.345Z,57.95
2018-01-19T03:30:15.337Z,58.05
2018-01-19T03:31:15.330Z,58.15
2018-01-19T03:32:15.324Z,58.05
2018-01-19T03:33:15.316Z,57.86
2018-01-19T03:34:15.311Z,58.15
2018-01-19T03:35:15.303Z,58.15
2018-01-19T03:36:15.301Z,57.86
2018-01-19T03:37:15.291Z,58.15
2018-01-19T03:38:15.283Z,58.15
2018-01-19T03:39:15.278Z,57.95
2018-01-19T03:40:15.271Z,58.15
2018-01-19T03:41:15.270Z,57.95
2018-01-19T03:42:15.258Z,57.95
2018-01-19T03:43:15.252Z,58.15
2018-01-19T03:44:15.246Z,58.24
2018-01-19T03:45:15.238Z,58.05
2018-01-19T03:46:15.231Z,58.24
2018-01-19T03:47:15.226Z,57.95
2018-01-19T03:48:15.219Z,58.15
2018-01-19T03:49:15.212Z,58.53
2018-01-19T03:50:15.206Z,58.53
2018-01-19T03:51:15.199Z,58.63
2018-01-19T03:52:15.193Z,58.53
2018-01-19T03:53:15.186Z,58.63
2018-01-19T03:54:15.180Z,58.63
2018-01-19T03:55:15.173Z,58.63
2018-01-19T03:56:15.167Z,58.44
2018-01-19T03:57:15.160Z,58.63
2018-01-19T03:58:15.153Z,58.24
2018-01-19T03:59:15.146Z,58.34
2018-01-19T04:00:15.140Z,58.44
2018-01-19T04:01:15.133Z,58.34
2018-01-19T04:02:15.129Z,58.34
2018-01-19T04:03:15.121Z,58.34
2018-01-19T04:04:15.111Z,58.53
2018-01-19T04:05:15.106Z,58.63
2018-01-19T04:06:15.100Z,58.63
2018-01-19T04:07:15.094Z,58.63
2018-01-19T04:08:15.087Z,58.15
2018-01-19T04:09:15.082Z,57.98
2018-01-19T04:10:15.075Z,57.98
2018-01-19T04:11:15.069Z,57.95
2018-01-19T04:12:15.061Z,58.08
2018-01-19T04:13:15.055Z,57.98
2018-01-19T04:14:15.047Z,58.27
2018-01-19T04:15:15.040Z,58.17
2018-01-19T04:16:15.037Z,57.98
2018-01-19T04:17:15.027Z,58.17
2018-01-19T04:18:15.022Z,58.17
2018-01-19T04:19:15.016Z,58.17
2018-01-19T04:20:15.011Z,57.98
2018-01-19T04:21:15.004Z,57.69
2018-01-19T04:22:14.996Z,57.79
2018-01-19T04:23:14.991Z,57.89
2018-01-19T04:24:14.987Z,57.50
2018-01-19T04:25:14.977Z,57.98
2018-01-19T04:26:14.971Z,57.50
2018-01-19T04:27:14.964Z,57.72
2018-01-19T04:28:14.960Z,57.72
2018-01-19T04:29:14.951Z,57.62
2018-01-19T04:30:14.945Z,57.62
2018-01-19T04:31:14.939Z,57.62
2018-01-19T04:32:14.932Z,57.82
2018-01-19T04:33:14.926Z,57.92
2018-01-19T04:34:14.918Z,57.53
2018-01-19T04:35:14.912Z,57.53
2018-01-19T04:36:14.907Z,58.01
2018-01-19T04:37:14.899Z,58.20
2018-01-19T04:38:14.893Z,58.11
2018-01-19T04:39:14.886Z,58.01
2018-01-19T04:40:14.882Z,58.20
2018-01-19T04:41:14.874Z,58.30
2018-01-19T04:42:14.869Z,58.40
2018-01-19T04:43:14.861Z,58.30
2018-01-19T04:44:14.856Z,58.20
2018-01-19T04:45:14.848Z,58.49
2018-01-19T04:46:14.843Z,58.40
2018-01-19T04:47:14.836Z,58.40
2018-01-19T04:48:14.830Z,58.30
2018-01-19T04:49:14.821Z,58.01
2018-01-19T04:50:14.815Z,58.20
2018-01-19T04:51:14.808Z,57.62
2018-01-19T04:52:14.807Z,58.01
2018-01-19T04:53:14.793Z,57.72
2018-01-19T04:54:14.786Z,57.72
2018-01-19T04:55:14.777Z,57.43
2018-01-19T04:56:14.775Z,57.34
2018-01-19T04:57:14.764Z,57.72
2018-01-19T04:58:14.757Z,56.76
2018-01-19T04:59:14.750Z,57.14
2018-01-19T05:00:14.743Z,56.76
2018-01-19T05:01:14.733Z,56.66
2018-01-19T05:02:14.726Z,56.37
2018-01-19T05:03:14.720Z,56.76
2018-01-19T05:04:14.712Z,56.37
2018-01-19T05:05:14.704Z,56.37
2018-01-19T05:06:14.700Z,56.18
2018-01-19T05:07:14.690Z,56.09
2018-01-19T05:08:14.681Z,56.18
2018-01-19T05:09:14.672Z,56.27
2018-01-19T05:10:14.666Z,56.18
2018-01-19T05:11:14.660Z,56.18
2018-01-19T05:12:14.651Z,56.18
2018-01-19T05:13:14.643Z,56.18
2018-01-19T05:14:14.635Z,56.18
2018-01-19T05:15:14.627Z,55.79
2018-01-19T05:16:14.620Z,55.79
2018-01-19T05:17:14.610Z,55.89
2018-01-19T05:18:14.604Z,55.60
2018-01-19T05:19:14.596Z,55.41
2018-01-19T05:20:14.588Z,55.60
2018-01-19T05:21:14.583Z,55.60
2018-01-19T05:22:14.572Z,55.70
2018-01-19T05:23:14.565Z,55.60
2018-01-19T05:24:14.557Z,55.79
2018-01-19T05:25:14.549Z,55.60
2018-01-19T05:26:14.542Z,55.31
2018-01-19T05:27:14.532Z,55.41
2018-01-19T05:28:14.530Z,55.31
2018-01-19T05:29:14.518Z,55.51
2018-01-19T05:30:14.511Z,55.60
2018-01-19T05:31:14.503Z,55.60
2018-01-19T05:32:14.498Z,55.60
2018-01-19T05:33:14.486Z,55.79
2018-01-19T05:34:14.484Z,55.60
2018-01-19T05:35:14.475Z,55.12
2018-01-19T05:36:14.465Z,55.12
2018-01-19T05:37:14.455Z,55.31
2018-01-19T05:38:14.446Z,55.31
2018-01-19T05:39:14.441Z,55.44
2018-01-19T05:40:14.433Z,55.51
2018-01-19T05:41:14.429Z,55.12
2018-01-19T05:42:14.419Z,55.22
2018-01-19T05:43:14.408Z,55.22
2018-01-19T05:44:14.400Z,55.12
2018-01-19T05:45:14.394Z,55.31
2018-01-19T05:46:14.386Z,55.51
2018-01-19T05:47:14.378Z,55.31
2018-01-19T05:48:14.369Z,55.31
2018-01-19T05:49:14.367Z,55.22
2018-01-19T05:50:14.353Z,55.22
2018-01-19T05:51:14.346Z,55.12
2018-01-19T05:52:14.338Z,55.12
2018-01-19T05:53:14.329Z,55.22
2018-01-19T05:54:14.324Z,55.31
2018-01-19T05:55:14.316Z,55.31
2018-01-19T05:56:14.312Z,54.83
2018-01-19T05:57:14.297Z,54.93
2018-01-19T05:58:14.291Z,54.64
2018-01-19T05:59:14.282Z,54.74
2018-01-19T06:00:14.275Z,54.64
2018-01-19T06:01:14.267Z,54.54
2018-01-19T06:02:14.266Z,54.54
2018-01-19T06:03:14.255Z,54.64
2018-01-19T06:04:14.243Z,54.74
2018-01-19T06:05:14.235Z,54.74
2018-01-19T06:06:14.227Z,54.74
2018-01-19T06:07:14.222Z,54.74
2018-01-19T06:08:14.213Z,54.64
2018-01-19T06:09:14.204Z,54.74
2018-01-19T06:10:14.198Z,54.74
2018-01-19T06:11:14.188Z,54.74
2018-01-19T06:12:14.228Z,54.74
2018-01-19T06:13:14.171Z,54.74
2018-01-19T06:14:14.167Z,54.83
2018-01-19T06:15:14.158Z,54.74
2018-01-19T06:16:14.149Z,54.64
2018-01-19T06:17:14.141Z,54.83
2018-01-19T06:18:14.134Z,54.83
2018-01-19T06:19:14.125Z,54.83
2018-01-19T06:20:14.119Z,54.83
2018-01-19T06:21:14.110Z,54.93
2018-01-19T06:22:14.105Z,54.64
2018-01-19T06:23:14.093Z,54.83
2018-01-19T06:24:14.087Z,54.83
2018-01-19T06:25:14.079Z,54.74
2018-01-19T06:26:14.070Z,54.74
2018-01-19T06:27:14.063Z,54.74
2018-01-19T06:28:14.055Z,54.74
2018-01-19T06:29:14.046Z,54.93
2018-01-19T06:30:14.040Z,54.83
2018-01-19T06:31:14.032Z,54.74
2018-01-19T06:32:14.022Z,54.83
2018-01-19T06:33:14.014Z,54.64
2018-01-19T06:34:14.009Z,54.83
2018-01-19T06:35:14.002Z,54.74
2018-01-19T06:36:13.991Z,54.74
2018-01-19T06:37:13.989Z,54.54
2018-01-19T06:38:13.976Z,54.54
2018-01-19T06:39:13.966Z,54.83
2018-01-19T06:40:13.959Z,54.74
2018-01-19T06:41:13.952Z,54.93
2018-01-19T06:42:13.943Z,54.83
2018-01-19T06:43:13.936Z,54.74
2018-01-19T06:44:13.931Z,54.83
2018-01-19T06:45:13.919Z,54.64
2018-01-19T06:46:13.912Z,54.83
2018-01-19T06:47:13.902Z,54.83
2018-01-19T06:48:13.897Z,54.44
2018-01-19T06:49:13.888Z,54.74
2018-01-19T06:50:13.880Z,54.83
2018-01-19T06:51:13.874Z,54.93
2018-01-19T06:52:13.869Z,54.74
2018-01-19T06:53:13.856Z,54.74
2018-01-19T06:54:13.848Z,54.64
2018-01-19T06:55:13.840Z,54.64
2018-01-19T06:56:13.833Z,54.83
2018-01-19T06:57:13.826Z,54.83
2018-01-19T06:58:13.817Z,54.83
2018-01-19T06:59:13.809Z,54.44
2018-01-19T07:00:13.802Z,54.83
2018-01-19T07:01:13.792Z,54.35
2018-01-19T07:02:13.787Z,54.16
2018-01-19T07:03:13.777Z,54.44
2018-01-19T07:04:13.770Z,54.44
2018-01-19T07:05:13.761Z,54.44
2018-01-19T07:06:13.753Z,54.44
2018-01-19T07:07:13.748Z,54.54
2018-01-19T07:08:13.739Z,54.44
2018-01-19T07:09:13.730Z,54.54
2018-01-19T07:10:13.723Z,54.44
2018-01-19T07:11:13.713Z,54.44
2018-01-19T07:12:13.707Z,54.44
2018-01-19T07:13:13.698Z,54.54
2018-01-19T07:14:13.689Z,54.44
2018-01-19T07:15:13.684Z,54.35
2018-01-19T07:16:13.707Z,54.44
2018-01-19T07:17:13.669Z,54.44
2018-01-19T07:18:13.658Z,54.44
2018-01-19T07:19:13.668Z,54.44
2018-01-19T07:20:13.662Z,54.54
2018-01-19T07:21:13.636Z,54.44
2018-01-19T07:22:13.627Z,54.54
2018-01-19T07:23:13.621Z,54.16
2018-01-19T07:24:13.612Z,54.25
2018-01-19T07:25:13.604Z,54.16
2018-01-19T07:26:13.595Z,54.44
2018-01-19T07:27:13.587Z,54.16
2018-01-19T07:28:13.575Z,54.44
2018-01-19T07:29:13.571Z,54.16
2018-01-19T07:30:13.565Z,54.25
2018-01-19T07:31:13.557Z,54.25
2018-01-19T07:32:13.546Z,54.25
2018-01-19T07:33:13.540Z,54.83
2018-01-19T07:34:13.536Z,54.25
2018-01-19T07:35:13.524Z,54.83
2018-01-19T07:36:13.516Z,54.44
2018-01-19T07:37:13.508Z,54.83
2018-01-19T07:38:13.501Z,54.44
2018-01-19T07:39:13.491Z,54.25
2018-01-19T07:40:13.485Z,54.44
2018-01-19T07:41:13.478Z,54.16
2018-01-19T07:42:13.467Z,54.16
2018-01-19T07:43:13.461Z,54.16
2018-01-19T07:44:13.452Z,54.16
2018-01-19T07:45:13.445Z,54.44
2018-01-19T07:46:13.446Z,54.44
2018-01-19T07:47:13.429Z,54.16
2018-01-19T07:48:13.420Z,54.54
2018-01-19T07:49:13.410Z,53.96
2018-01-19T07:50:13.409Z,54.25
2018-01-19T07:51:13.396Z,54.06
2018-01-19T07:52:13.391Z,54.06
2018-01-19T07:53:13.380Z,54.44
2018-01-19T07:54:13.374Z,54.06
2018-01-19T07:55:13.364Z,54.16
2018-01-19T07:56:13.356Z,54.06
2018-01-19T07:57:13.348Z,54.06
2018-01-19T07:58:13.341Z,54.16
2018-01-19T07:59:13.334Z,54.25
2018-01-19T08:00:13.324Z,54.16
2018-01-19T08:01:13.317Z,54.06
2018-01-19T08:02:13.309Z,53.96
2018-01-19T08:03:13.301Z,54.06
2018-01-19T08:04:13.294Z,53.96
2018-01-19T08:05:13.284Z,53.96
2018-01-19T08:06:13.279Z,53.96
2018-01-19T08:07:13.271Z,53.96
2018-01-19T08:08:13.262Z,53.96
2018-01-19T08:09:13.254Z,53.58
2018-01-19T08:10:13.245Z,53.77
2018-01-19T08:11:13.238Z,53.87
2018-01-19T08:12:13.232Z,53.77
2018-01-19T08:13:13.223Z,53.87
2018-01-19T08:14:13.214Z,53.67
2018-01-19T08:15:13.206Z,53.87
2018-01-19T08:16:13.198Z,53.77
2018-01-19T08:17:13.191Z,53.48
2018-01-19T08:18:13.182Z,53.87
2018-01-19T08:19:13.174Z,54.06
2018-01-19T08:20:13.165Z,53.87
2018-01-19T08:21:13.163Z,54.06
2018-01-19T08:22:13.149Z,53.77
2018-01-19T08:23:13.142Z,53.77
2018-01-19T08:24:13.135Z,53.48
2018-01-19T08:25:13.128Z,53.67
2018-01-19T08:26:13.117Z,53.48
2018-01-19T08:27:13.110Z,53.67
2018-01-19T08:28:13.107Z,53.77
2018-01-19T08:29:13.094Z,53.48
2018-01-19T08:30:13.086Z,53.67
2018-01-19T08:31:13.078Z,53.67
2018-01-19T08:32:13.071Z,53.67
2018-01-19T08:33:13.061Z,53.58
2018-01-19T08:34:13.055Z,53.77
2018-01-19T08:35:13.046Z,53.67
2018-01-19T08:36:13.039Z,53.67
2018-01-19T08:37:13.031Z,53.67
2018-01-19T08:38:13.022Z,53.87
2018-01-19T08:39:13.014Z,53.87
2018-01-19T08:40:13.006Z,53.67
2018-01-19T08:41:12.998Z,53.96
2018-01-19T08:42:12.994Z,54.06
2018-01-19T08:43:12.984Z,53.96
2018-01-19T08:44:12.976Z,53.96
2018-01-19T08:45:12.967Z,53.96
2018-01-19T08:46:12.960Z,53.96
2018-01-19T08:47:12.951Z,53.77
2018-01-19T08:48:12.945Z,53.77
2018-01-19T08:49:12.935Z,53.77
2018-01-19T08:50:12.928Z,53.67
2018-01-19T08:51:12.921Z,54.06
2018-01-19T08:52:12.912Z,54.06
2018-01-19T08:53:12.904Z,53.87
2018-01-19T08:54:12.896Z,53.87
2018-01-19T08:55:12.904Z,53.77
2018-01-19T08:56:12.879Z,53.96
2018-01-19T08:57:12.872Z,53.77
2018-01-19T08:58:12.864Z,53.87
2018-01-19T08:59:12.857Z,53.48
2018-01-19T09:00:12.848Z,53.67
2018-01-19T09:01:12.840Z,53.48
2018-01-19T09:02:12.832Z,53.58
2018-01-19T09:03:12.826Z,53.48
2018-01-19T09:04:12.818Z,53.48
2018-01-19T09:05:12.854Z,53.48
2018-01-19T09:06:12.831Z,53.48
2018-01-19T09:07:12.792Z,53.48
2018-01-19T09:08:12.785Z,53.48
2018-01-19T09:09:12.777Z,53.48
2018-01-19T09:10:12.770Z,53.39
2018-01-19T09:11:12.762Z,53.77
2018-01-19T09:12:12.752Z,53.48
2018-01-19T09:13:12.757Z,53.58
2018-01-19T09:14:12.736Z,53.48
2018-01-19T09:15:12.730Z,53.39
2018-01-19T09:16:12.721Z,53.48
2018-01-19T09:17:12.714Z,53.67
2018-01-19T09:18:12.706Z,53.48
2018-01-19T09:19:12.698Z,53.29
2018-01-19T09:20:12.693Z,53.48
2018-01-19T09:21:12.681Z,53.48
2018-01-19T09:22:12.673Z,53.58
2018-01-19T09:23:12.668Z,53.48
2018-01-19T09:24:12.660Z,53.48
2018-01-19T09:25:12.649Z,53.48
2018-01-19T09:26:12.641Z,53.67
2018-01-19T09:27:12.637Z,53.39
2018-01-19T09:28:12.625Z,53.58
2018-01-19T09:29:12.617Z,53.58
2018-01-19T09:30:12.610Z,53.58
2018-01-19T09:31:12.603Z,53.58
2018-01-19T09:32:12.594Z,53.58
2018-01-19T09:33:12.586Z,53.39
2018-01-19T09:34:12.579Z,53.39
2018-01-19T09:35:12.570Z,53.58
2018-01-19T09:36:12.563Z,53.39
2018-01-19T09:37:12.555Z,53.67
2018-01-19T09:38:12.551Z,53.58
2018-01-19T09:39:12.539Z,53.58
2018-01-19T09:40:12.533Z,53.67
2018-01-19T09:41:12.523Z,53.00
2018-01-19T09:42:12.515Z,53.77
2018-01-19T09:43:12.507Z,53.19
2018-01-19T09:44:12.499Z,53.19
2018-01-19T09:45:12.491Z,53.29
2018-01-19T09:46:12.484Z,53.29
2018-01-19T09:47:12.475Z,53.19
2018-01-19T09:48:12.467Z,53.19
2018-01-19T09:49:12.459Z,53.29
2018-01-19T09:50:12.451Z,53.00
2018-01-19T09:51:12.444Z,53.19
2018-01-19T09:52:12.435Z,52.91
2018-01-19T09:53:12.428Z,52.81
2018-01-19T09:54:12.420Z,52.71
2018-01-19T09:55:12.414Z,52.91
2018-01-19T09:56:12.404Z,52.91
2018-01-19T09:57:12.441Z,52.61
2018-01-19T09:58:12.389Z,52.81
2018-01-19T09:59:12.381Z,52.81
2018-01-19T10:00:12.372Z,52.71
2018-01-19T10:01:12.363Z,53.09
2018-01-19T10:02:12.357Z,53.09
2018-01-19T10:03:12.350Z,52.91
2018-01-19T10:04:12.342Z,52.91
2018-01-19T10:05:12.334Z,53.19
2018-01-19T10:06:12.325Z,52.81
2018-01-19T10:07:12.319Z,52.83
2018-01-19T10:08:12.309Z,52.55
2018-01-19T10:09:12.300Z,52.45
2018-01-19T10:10:12.293Z,52.64
2018-01-19T10:11:12.285Z,52.64
2018-01-19T10:12:12.288Z,52.35
2018-01-19T10:13:12.271Z,52.45
2018-01-19T10:14:12.264Z,52.35
2018-01-19T10:15:12.256Z,52.25
2018-01-19T10:16:12.249Z,52.25
2018-01-19T10:17:12.240Z,52.16
2018-01-19T10:18:12.237Z,52.35
2018-01-19T10:19:12.230Z,52.55
2018-01-19T10:20:12.218Z,52.16
2018-01-19T10:21:12.211Z,52.19
2018-01-19T10:22:12.205Z,52.28
2018-01-19T10:23:12.196Z,52.19
2018-01-19T10:24:12.189Z,51.99
2018-01-19T10:25:12.180Z,52.09
2018-01-19T10:26:12.173Z,52.09
2018-01-19T10:27:12.167Z,52.09
2018-01-19T10:28:12.161Z,52.37
2018-01-19T10:29:12.175Z,51.80
2018-01-19T10:30:12.147Z,51.61
2018-01-19T10:31:12.163Z,51.53
2018-01-19T10:32:12.138Z,51.25
2018-01-19T10:33:12.125Z,51.05
2018-01-19T10:34:12.119Z,50.86
2018-01-19T10:35:12.113Z,50.86
2018-01-19T10:36:12.106Z,50.96
2018-01-19T10:37:12.098Z,50.86
2018-01-19T10:38:12.092Z,51.25
2018-01-19T10:39:12.087Z,51.44
2018-01-19T10:40:12.078Z,51.53
2018-01-19T10:41:12.077Z,51.15
2018-01-19T10:42:12.065Z,51.34
2018-01-19T10:43:12.059Z,51.34
2018-01-19T10:44:12.053Z,50.96
2018-01-19T10:45:12.046Z,51.51
2018-01-19T10:46:12.038Z,51.63
2018-01-19T10:47:12.030Z,51.32
2018-01-19T10:48:12.023Z,51.32
2018-01-19T10:49:12.015Z,51.32
2018-01-19T10:50:12.009Z,51.32
2018-01-19T10:51:12.001Z,51.41
2018-01-19T10:52:11.995Z,51.41
2018-01-19T10:53:11.988Z,51.89
2018-01-19T10:54:11.983Z,51.70
2018-01-19T10:55:11.973Z,51.89
2018-01-19T10:56:11.971Z,51.80
2018-01-19T10:57:11.960Z,51.51
2018-01-19T10:58:11.955Z,51.70
2018-01-19T10:59:11.944Z,51.80
2018-01-19T11:00:11.938Z,51.70
2018-01-19T11:01:11.930Z,51.61
2018-01-19T11:02:11.923Z,51.70
2018-01-19T11:03:11.916Z,51.61
2018-01-19T11:04:11.908Z,51.41
2018-01-19T11:05:11.901Z,51.70
2018-01-19T11:06:11.894Z,51.51
2018-01-19T11:07:11.886Z,51.51
2018-01-19T11:08:11.878Z,51.32
2018-01-19T11:09:11.870Z,51.39
2018-01-19T11:10:11.879Z,51.48
2018-01-19T11:11:11.856Z,51.48
2018-01-19T11:12:11.849Z,51.77
2018-01-19T11:13:11.842Z,51.58
2018-01-19T11:14:11.832Z,51.48
2018-01-19T11:15:11.827Z,51.68
2018-01-19T11:16:11.820Z,51.77
2018-01-19T11:17:11.811Z,51.68
2018-01-19T11:18:11.804Z,51.39
2018-01-19T11:19:11.797Z,52.16
2018-01-19T11:20:11.788Z,52.25
2018-01-19T11:21:11.784Z,52.06
2018-01-19T11:22:11.775Z,51.97
2018-01-19T11:23:11.764Z,52.06
2018-01-19T11:24:11.761Z,52.06
2018-01-19T11:25:11.751Z,52.16
2018-01-19T11:26:11.789Z,52.16
2018-01-19T11:27:11.736Z,52.06
2018-01-19T11:28:11.728Z,52.06
2018-01-19T11:29:11.720Z,52.16
2018-01-19T11:30:11.712Z,52.06
2018-01-19T11:31:11.705Z,52.06
2018-01-19T11:32:11.700Z,52.16
2018-01-19T11:33:11.690Z,52.16
2018-01-19T11:34:11.683Z,52.16
2018-01-19T11:35:11.675Z,52.16
2018-01-19T11:36:11.667Z,52.16
2018-01-19T11:37:11.659Z,52.25
2018-01-19T11:38:11.653Z,52.25
2018-01-19T11:39:11.645Z,51.97
2018-01-19T11:40:11.636Z,51.97
2018-01-19T11:41:11.675Z,52.06
2018-01-19T11:42:11.620Z,52.06
2018-01-19T11:43:11.613Z,51.97
2018-01-19T11:44:11.604Z,51.97
2018-01-19T11:45:11.597Z,52.06
2018-01-19T11:46:11.591Z,51.29
2018-01-19T11:47:11.582Z,51.48
2018-01-19T11:48:11.577Z,51.61
2018-01-19T11:49:11.568Z,51.22
2018-01-19T11:50:11.560Z,51.51
2018-01-19T11:51:11.551Z,51.03
2018-01-19T11:52:11.546Z,50.67
2018-01-19T11:53:11.537Z,50.47
2018-01-19T11:54:11.530Z,50.47
2018-01-19T11:55:11.521Z,50.47
2018-01-19T11:56:11.514Z,50.47
2018-01-19T11:57:11.506Z,50.38
2018-01-19T11:58:11.499Z,50.96
2018-01-19T11:59:11.491Z,50.74
2018-01-19T12:00:11.486Z,50.74
2018-01-19T12:01:11.478Z,50.54
2018-01-19T12:02:11.468Z,50.84
2018-01-19T12:03:11.460Z,50.74
2018-01-19T12:04:11.456Z,50.93
2018-01-19T12:05:11.446Z,50.93
2018-01-19T12:06:11.439Z,50.84
2018-01-19T12:07:11.432Z,51.61
2018-01-19T12:08:11.425Z,51.32
2018-01-19T12:09:11.417Z,51.51
2018-01-19T12:10:11.409Z,51.41
2018-01-19T12:11:11.402Z,51.12
2018-01-19T12:12:11.395Z,51.12
2018-01-19T12:13:11.386Z,51.12
2018-01-19T12:14:11.381Z,51.12
2018-01-19T12:15:11.372Z,51.10
2018-01-19T12:16:11.364Z,51.20
2018-01-19T12:17:11.359Z,51.10
2018-01-19T12:18:11.351Z,51.29
2018-01-19T12:19:11.342Z,51.12
2018-01-19T12:20:11.379Z,51.03
2018-01-19T12:21:11.328Z,51.41
2018-01-19T12:22:11.319Z,51.61
2018-01-19T12:23:11.310Z,51.32
2018-01-19T12:24:11.304Z,51.61
2018-01-19T12:25:11.295Z,50.93
2018-01-19T12:26:11.288Z,51.03
2018-01-19T12:27:11.281Z,50.74
2018-01-19T12:28:11.275Z,50.64
2018-01-19T12:29:11.267Z,51.03
2018-01-19T12:30:11.271Z,50.47
2018-01-19T12:31:11.289Z,50.47
2018-01-19T12:32:11.244Z,50.28
2018-01-19T12:33:11.236Z,50.67
2018-01-19T12:34:11.230Z,49.80
2018-01-19T12:35:11.220Z,49.90
2018-01-19T12:36:11.216Z,49.80
2018-01-19T12:37:11.204Z,50.11
2018-01-19T12:38:11.198Z,49.99
2018-01-19T12:39:11.192Z,49.73
2018-01-19T12:40:11.184Z,49.73
2018-01-19T12:41:11.177Z,49.92
2018-01-19T12:42:11.169Z,49.92
2018-01-19T12:43:11.162Z,49.53
2018-01-19T12:44:11.155Z,49.82
2018-01-19T12:45:11.147Z,50.01
2018-01-19T12:46:11.139Z,49.73
2018-01-19T12:47:11.133Z,49.63
2018-01-19T12:48:11.124Z,49.63
2018-01-19T12:49:11.118Z,49.63
2018-01-19T12:50:11.111Z,49.73
2018-01-19T12:51:11.104Z,49.60
2018-01-19T12:52:11.098Z,49.92